sensor_id;sensor_type;location;lat;lon;timestamp;temperature;humidity
34833;DHT22;55941;50.800;4.342;2023-07-28T00:02:08;18.20;99.90
34833;DHT22;55941;50.800;4.342;2023-07-28T00:04:35;18.20;99.90
34833;DHT22;55941;50.800;4.342;2023-07-28T00:07:03;18.20;99.90
34833;DHT22;55941;50.800;4.342;2023-07-28T00:09:30;18.20;99.90
34833;DHT22;55941;50.800;4.342;2023-07-28T00:11:57;18.20;99.90
34833;DHT22;55941;50.800;4.342;2023-07-28T00:14:24;18.20;99.90
34833;DHT22;55941;50.800;4.342;2023-07-28T00:16:55;18.20;99.90
34833;DHT22;55941;50.800;4.342;2023-07-28T00:19:22;18.30;99.90
34833;DHT22;55941;50.800;4.342;2023-07-28T00:21:51;18.20;99.90
34833;DHT22;55941;50.800;4.342;2023-07-28T00:24:18;18.20;99.90
34833;DHT22;55941;50.800;4.342;2023-07-28T00:26:44;18.10;99.90
34833;DHT22;55941;50.800;4.342;2023-07-28T00:29:10;18.20;99.90
34833;DHT22;55941;50.800;4.342;2023-07-28T00:31:36;18.20;99.90
34833;DHT22;55941;50.800;4.342;2023-07-28T00:34:02;18.20;99.90
34833;DHT22;55941;50.800;4.342;2023-07-28T00:36:29;18.20;99.90
34833;DHT22;55941;50.800;4.342;2023-07-28T00:38:55;18.30;99.90
34833;DHT22;55941;50.800;4.342;2023-07-28T00:41:21;18.20;99.90
34833;DHT22;55941;50.800;4.342;2023-07-28T00:43:47;18.20;99.90
34833;DHT22;55941;50.800;4.342;2023-07-28T00:46:14;18.20;99.90
34833;DHT22;55941;50.800;4.342;2023-07-28T00:48:40;18.20;99.90
34833;DHT22;55941;50.800;4.342;2023-07-28T00:51:07;18.20;99.90
34833;DHT22;55941;50.800;4.342;2023-07-28T00:53:33;18.20;99.90
34833;DHT22;55941;50.800;4.342;2023-07-28T00:56:00;18.20;99.90
34833;DHT22;55941;50.800;4.342;2023-07-28T00:58:26;18.20;99.90
34833;DHT22;55941;50.800;4.342;2023-07-28T01:00:52;18.20;99.90
34833;DHT22;55941;50.800;4.342;2023-07-28T01:03:18;18.30;99.90
34833;DHT22;55941;50.800;4.342;2023-07-28T01:08:33;18.30;99.90
34833;DHT22;55941;50.800;4.342;2023-07-28T01:10:59;18.30;99.90
34833;DHT22;55941;50.800;4.342;2023-07-28T01:13:25;18.40;99.90
34833;DHT22;55941;50.800;4.342;2023-07-28T01:15:53;18.30;99.90
34833;DHT22;55941;50.800;4.342;2023-07-28T01:18:19;18.40;99.90
34833;DHT22;55941;50.800;4.342;2023-07-28T01:20:46;18.30;99.90
34833;DHT22;55941;50.800;4.342;2023-07-28T01:26:06;18.30;99.90
34833;DHT22;55941;50.800;4.342;2023-07-28T01:28:34;18.40;99.90
34833;DHT22;55941;50.800;4.342;2023-07-28T01:31:02;18.40;99.90
34833;DHT22;55941;50.800;4.342;2023-07-28T01:33:29;18.40;99.90
34833;DHT22;55941;50.800;4.342;2023-07-28T01:35:54;18.40;99.90
34833;DHT22;55941;50.800;4.342;2023-07-28T01:38:20;18.40;99.90
34833;DHT22;55941;50.800;4.342;2023-07-28T01:40:47;18.30;99.90
34833;DHT22;55941;50.800;4.342;2023-07-28T01:43:13;18.20;99.90
34833;DHT22;55941;50.800;4.342;2023-07-28T01:45:39;18.20;99.90
34833;DHT22;55941;50.800;4.342;2023-07-28T01:48:05;18.20;99.90
34833;DHT22;55941;50.800;4.342;2023-07-28T01:50:31;18.30;99.90
34833;DHT22;55941;50.800;4.342;2023-07-28T01:52:56;18.30;99.90
34833;DHT22;55941;50.800;4.342;2023-07-28T01:55:22;18.40;99.90
34833;DHT22;55941;50.800;4.342;2023-07-28T01:57:59;18.40;99.90
34833;DHT22;55941;50.800;4.342;2023-07-28T02:00:25;18.40;99.90
34833;DHT22;55941;50.800;4.342;2023-07-28T02:02:52;18.50;99.90
34833;DHT22;55941;50.800;4.342;2023-07-28T02:05:18;18.50;99.90
34833;DHT22;55941;50.800;4.342;2023-07-28T02:07:44;18.60;99.90
34833;DHT22;55941;50.800;4.342;2023-07-28T02:10:10;18.60;99.90
34833;DHT22;55941;50.800;4.342;2023-07-28T02:12:37;18.60;99.90
34833;DHT22;55941;50.800;4.342;2023-07-28T02:15:03;18.60;99.90
34833;DHT22;55941;50.800;4.342;2023-07-28T02:17:29;18.60;99.90
34833;DHT22;55941;50.800;4.342;2023-07-28T02:19:55;18.60;99.90
34833;DHT22;55941;50.800;4.342;2023-07-28T02:22:20;18.60;99.90
34833;DHT22;55941;50.800;4.342;2023-07-28T02:24:46;18.60;99.90
34833;DHT22;55941;50.800;4.342;2023-07-28T02:27:13;18.50;99.90
34833;DHT22;55941;50.800;4.342;2023-07-28T02:29:38;18.50;99.90
34833;DHT22;55941;50.800;4.342;2023-07-28T02:32:04;18.40;99.90
34833;DHT22;55941;50.800;4.342;2023-07-28T02:34:30;18.30;99.90
34833;DHT22;55941;50.800;4.342;2023-07-28T02:36:57;18.40;99.90
34833;DHT22;55941;50.800;4.342;2023-07-28T02:39:23;18.50;99.90
34833;DHT22;55941;50.800;4.342;2023-07-28T02:41:48;18.40;99.90
34833;DHT22;55941;50.800;4.342;2023-07-28T02:44:14;18.30;99.90
34833;DHT22;55941;50.800;4.342;2023-07-28T02:46:41;18.40;99.90
34833;DHT22;55941;50.800;4.342;2023-07-28T02:49:06;18.30;99.90
34833;DHT22;55941;50.800;4.342;2023-07-28T02:51:32;18.30;99.90
34833;DHT22;55941;50.800;4.342;2023-07-28T02:54:00;18.30;99.90
34833;DHT22;55941;50.800;4.342;2023-07-28T02:56:25;18.30;99.90
34833;DHT22;55941;50.800;4.342;2023-07-28T02:58:51;18.30;99.90
34833;DHT22;55941;50.800;4.342;2023-07-28T03:01:18;18.40;99.90
34833;DHT22;55941;50.800;4.342;2023-07-28T03:03:44;18.30;99.90
34833;DHT22;55941;50.800;4.342;2023-07-28T03:06:10;18.30;99.90
34833;DHT22;55941;50.800;4.342;2023-07-28T03:08:35;18.30;99.90
34833;DHT22;55941;50.800;4.342;2023-07-28T03:11:01;18.40;99.90
34833;DHT22;55941;50.800;4.342;2023-07-28T03:13:29;18.40;99.90
34833;DHT22;55941;50.800;4.342;2023-07-28T03:15:55;18.30;99.90
34833;DHT22;55941;50.800;4.342;2023-07-28T03:18:21;18.30;99.90
34833;DHT22;55941;50.800;4.342;2023-07-28T03:20:47;18.40;99.90
34833;DHT22;55941;50.800;4.342;2023-07-28T03:23:13;18.40;99.90
34833;DHT22;55941;50.800;4.342;2023-07-28T03:25:39;18.50;99.90
34833;DHT22;55941;50.800;4.342;2023-07-28T03:28:05;18.60;99.90
34833;DHT22;55941;50.800;4.342;2023-07-28T03:30:31;18.60;99.90
34833;DHT22;55941;50.800;4.342;2023-07-28T03:32:56;18.50;99.90
34833;DHT22;55941;50.800;4.342;2023-07-28T03:35:22;18.60;99.90
34833;DHT22;55941;50.800;4.342;2023-07-28T03:37:48;18.50;99.90
34833;DHT22;55941;50.800;4.342;2023-07-28T03:40:14;18.50;99.90
34833;DHT22;55941;50.800;4.342;2023-07-28T03:42:39;18.60;99.90
34833;DHT22;55941;50.800;4.342;2023-07-28T03:45:05;18.50;99.90
34833;DHT22;55941;50.800;4.342;2023-07-28T03:47:31;18.40;99.90
34833;DHT22;55941;50.800;4.342;2023-07-28T03:49:59;18.50;99.90
34833;DHT22;55941;50.800;4.342;2023-07-28T03:52:24;18.40;99.90
34833;DHT22;55941;50.800;4.342;2023-07-28T03:54:50;18.40;99.90
34833;DHT22;55941;50.800;4.342;2023-07-28T03:57:16;18.40;99.90
34833;DHT22;55941;50.800;4.342;2023-07-28T03:59:41;18.40;99.90
34833;DHT22;55941;50.800;4.342;2023-07-28T04:02:07;18.40;99.90
34833;DHT22;55941;50.800;4.342;2023-07-28T04:04:34;18.50;99.90
34833;DHT22;55941;50.800;4.342;2023-07-28T04:07:00;18.50;99.90
34833;DHT22;55941;50.800;4.342;2023-07-28T04:09:27;18.50;99.90
34833;DHT22;55941;50.800;4.342;2023-07-28T04:11:52;18.50;99.90
34833;DHT22;55941;50.800;4.342;2023-07-28T04:14:18;18.60;99.90
34833;DHT22;55941;50.800;4.342;2023-07-28T04:16:44;18.60;99.90
34833;DHT22;55941;50.800;4.342;2023-07-28T04:19:10;18.60;99.90
34833;DHT22;55941;50.800;4.342;2023-07-28T04:21:35;18.60;99.90
34833;DHT22;55941;50.800;4.342;2023-07-28T04:24:08;18.60;99.90
34833;DHT22;55941;50.800;4.342;2023-07-28T04:26:34;18.70;99.90
34833;DHT22;55941;50.800;4.342;2023-07-28T04:29:00;18.80;99.90
34833;DHT22;55941;50.800;4.342;2023-07-28T04:31:25;18.90;99.90
34833;DHT22;55941;50.800;4.342;2023-07-28T04:33:51;18.90;99.90
34833;DHT22;55941;50.800;4.342;2023-07-28T04:36:17;18.90;99.90
34833;DHT22;55941;50.800;4.342;2023-07-28T04:38:42;18.80;99.90
34833;DHT22;55941;50.800;4.342;2023-07-28T04:41:08;18.90;99.90
34833;DHT22;55941;50.800;4.342;2023-07-28T04:43:34;18.80;99.90
34833;DHT22;55941;50.800;4.342;2023-07-28T04:45:59;18.80;99.90
34833;DHT22;55941;50.800;4.342;2023-07-28T04:48:27;18.80;99.90
34833;DHT22;55941;50.800;4.342;2023-07-28T04:50:52;18.90;99.90
34833;DHT22;55941;50.800;4.342;2023-07-28T04:53:18;18.80;99.90
34833;DHT22;55941;50.800;4.342;2023-07-28T04:55:45;18.70;99.90
34833;DHT22;55941;50.800;4.342;2023-07-28T04:58:10;18.70;99.90
34833;DHT22;55941;50.800;4.342;2023-07-28T05:00:36;18.70;99.90
34833;DHT22;55941;50.800;4.342;2023-07-28T05:03:02;18.70;99.90
34833;DHT22;55941;50.800;4.342;2023-07-28T05:05:29;18.70;99.90
34833;DHT22;55941;50.800;4.342;2023-07-28T05:07:55;18.70;99.90
34833;DHT22;55941;50.800;4.342;2023-07-28T05:10:21;18.70;99.90
34833;DHT22;55941;50.800;4.342;2023-07-28T05:12:46;18.70;99.90
34833;DHT22;55941;50.800;4.342;2023-07-28T05:15:14;18.70;99.90
34833;DHT22;55941;50.800;4.342;2023-07-28T05:17:40;18.80;99.90
34833;DHT22;55941;50.800;4.342;2023-07-28T05:20:06;18.80;99.90
34833;DHT22;55941;50.800;4.342;2023-07-28T05:22:32;18.70;99.90
34833;DHT22;55941;50.800;4.342;2023-07-28T05:24:58;18.70;99.90
34833;DHT22;55941;50.800;4.342;2023-07-28T05:27:24;18.70;99.90
34833;DHT22;55941;50.800;4.342;2023-07-28T05:29:49;18.70;99.90
34833;DHT22;55941;50.800;4.342;2023-07-28T05:32:15;18.70;99.90
34833;DHT22;55941;50.800;4.342;2023-07-28T05:34:44;18.60;99.90
34833;DHT22;55941;50.800;4.342;2023-07-28T05:37:10;18.70;99.90
34833;DHT22;55941;50.800;4.342;2023-07-28T05:39:36;18.80;99.90
34833;DHT22;55941;50.800;4.342;2023-07-28T05:42:02;18.90;99.90
34833;DHT22;55941;50.800;4.342;2023-07-28T05:44:28;19.00;99.90
34833;DHT22;55941;50.800;4.342;2023-07-28T05:46:54;18.90;99.90
34833;DHT22;55941;50.800;4.342;2023-07-28T05:49:20;19.00;99.90
34833;DHT22;55941;50.800;4.342;2023-07-28T05:51:45;18.90;99.90
34833;DHT22;55941;50.800;4.342;2023-07-28T05:54:15;18.90;99.90
34833;DHT22;55941;50.800;4.342;2023-07-28T05:56:44;18.90;99.90
34833;DHT22;55941;50.800;4.342;2023-07-28T05:59:10;18.80;99.90
34833;DHT22;55941;50.800;4.342;2023-07-28T06:01:35;18.70;99.90
34833;DHT22;55941;50.800;4.342;2023-07-28T06:04:02;18.70;99.90
34833;DHT22;55941;50.800;4.342;2023-07-28T06:06:28;18.70;99.90
34833;DHT22;55941;50.800;4.342;2023-07-28T06:08:54;18.80;99.90
34833;DHT22;55941;50.800;4.342;2023-07-28T06:11:20;18.80;99.90
34833;DHT22;55941;50.800;4.342;2023-07-28T06:13:46;18.80;99.90
34833;DHT22;55941;50.800;4.342;2023-07-28T06:16:13;18.90;99.90
34833;DHT22;55941;50.800;4.342;2023-07-28T06:18:38;18.90;99.90
34833;DHT22;55941;50.800;4.342;2023-07-28T06:21:04;18.80;99.90
34833;DHT22;55941;50.800;4.342;2023-07-28T06:23:30;18.90;99.90
34833;DHT22;55941;50.800;4.342;2023-07-28T06:25:56;18.90;99.90
34833;DHT22;55941;50.800;4.342;2023-07-28T06:28:23;18.90;99.90
34833;DHT22;55941;50.800;4.342;2023-07-28T06:30:55;18.90;99.90
34833;DHT22;55941;50.800;4.342;2023-07-28T06:33:25;18.80;99.90
34833;DHT22;55941;50.800;4.342;2023-07-28T06:35:50;18.80;99.90
34833;DHT22;55941;50.800;4.342;2023-07-28T06:38:18;18.80;99.90
34833;DHT22;55941;50.800;4.342;2023-07-28T06:40:44;18.80;99.90
34833;DHT22;55941;50.800;4.342;2023-07-28T06:43:10;18.80;99.90
34833;DHT22;55941;50.800;4.342;2023-07-28T06:45:36;19.00;99.90
34833;DHT22;55941;50.800;4.342;2023-07-28T06:48:02;19.00;99.90
34833;DHT22;55941;50.800;4.342;2023-07-28T06:50:28;19.00;99.90
34833;DHT22;55941;50.800;4.342;2023-07-28T06:52:55;18.90;99.90
34833;DHT22;55941;50.800;4.342;2023-07-28T06:55:22;18.80;99.90
34833;DHT22;55941;50.800;4.342;2023-07-28T06:57:48;18.90;99.90
34833;DHT22;55941;50.800;4.342;2023-07-28T07:00:15;19.10;99.90
34833;DHT22;55941;50.800;4.342;2023-07-28T07:02:41;19.30;99.90
34833;DHT22;55941;50.800;4.342;2023-07-28T07:05:07;19.40;99.90
34833;DHT22;55941;50.800;4.342;2023-07-28T07:07:33;19.40;99.90
34833;DHT22;55941;50.800;4.342;2023-07-28T07:09:59;19.50;99.90
34833;DHT22;55941;50.800;4.342;2023-07-28T07:12:25;19.60;99.90
34833;DHT22;55941;50.800;4.342;2023-07-28T07:14:51;19.60;99.90
34833;DHT22;55941;50.800;4.342;2023-07-28T07:17:17;19.50;99.90
34833;DHT22;55941;50.800;4.342;2023-07-28T07:19:45;19.50;99.90
34833;DHT22;55941;50.800;4.342;2023-07-28T07:22:10;19.60;99.90
34833;DHT22;55941;50.800;4.342;2023-07-28T07:24:36;19.50;99.90
34833;DHT22;55941;50.800;4.342;2023-07-28T07:27:02;19.40;99.90
34833;DHT22;55941;50.800;4.342;2023-07-28T07:29:28;19.40;99.90
34833;DHT22;55941;50.800;4.342;2023-07-28T07:31:53;19.50;99.90
34833;DHT22;55941;50.800;4.342;2023-07-28T07:34:22;19.40;99.90
34833;DHT22;55941;50.800;4.342;2023-07-28T07:36:47;19.50;99.90
34833;DHT22;55941;50.800;4.342;2023-07-28T07:39:13;19.50;99.90
34833;DHT22;55941;50.800;4.342;2023-07-28T07:41:39;19.60;99.90
34833;DHT22;55941;50.800;4.342;2023-07-28T07:44:05;19.80;99.90
34833;DHT22;55941;50.800;4.342;2023-07-28T07:46:30;19.90;99.90
34833;DHT22;55941;50.800;4.342;2023-07-28T07:48:56;20.00;99.90
34833;DHT22;55941;50.800;4.342;2023-07-28T07:51:22;20.00;99.90
34833;DHT22;55941;50.800;4.342;2023-07-28T07:53:47;19.90;99.90
34833;DHT22;55941;50.800;4.342;2023-07-28T07:56:13;19.50;99.90
34833;DHT22;55941;50.800;4.342;2023-07-28T07:58:39;19.50;99.90
34833;DHT22;55941;50.800;4.342;2023-07-28T08:01:05;19.40;99.90
34833;DHT22;55941;50.800;4.342;2023-07-28T08:03:31;19.50;99.90
34833;DHT22;55941;50.800;4.342;2023-07-28T08:05:57;19.50;99.90
34833;DHT22;55941;50.800;4.342;2023-07-28T08:08:23;19.50;99.90
34833;DHT22;55941;50.800;4.342;2023-07-28T08:10:51;19.50;99.90
34833;DHT22;55941;50.800;4.342;2023-07-28T08:13:17;19.60;99.90
34833;DHT22;55941;50.800;4.342;2023-07-28T08:15:44;19.70;99.90
34833;DHT22;55941;50.800;4.342;2023-07-28T08:18:11;19.80;99.90
34833;DHT22;55941;50.800;4.342;2023-07-28T08:20:36;20.00;99.90
34833;DHT22;55941;50.800;4.342;2023-07-28T08:23:02;19.90;99.90
34833;DHT22;55941;50.800;4.342;2023-07-28T08:25:28;20.00;99.90
34833;DHT22;55941;50.800;4.342;2023-07-28T08:27:54;20.00;99.90
34833;DHT22;55941;50.800;4.342;2023-07-28T08:30:19;20.00;99.90
34833;DHT22;55941;50.800;4.342;2023-07-28T08:32:46;20.00;99.90
34833;DHT22;55941;50.800;4.342;2023-07-28T08:35:12;20.00;99.90
34833;DHT22;55941;50.800;4.342;2023-07-28T08:37:38;20.00;99.90
34833;DHT22;55941;50.800;4.342;2023-07-28T08:40:04;20.10;99.90
34833;DHT22;55941;50.800;4.342;2023-07-28T08:42:31;20.10;99.90
34833;DHT22;55941;50.800;4.342;2023-07-28T08:45:04;20.10;99.90
34833;DHT22;55941;50.800;4.342;2023-07-28T08:47:31;20.10;99.90
34833;DHT22;55941;50.800;4.342;2023-07-28T08:49:57;20.20;99.90
34833;DHT22;55941;50.800;4.342;2023-07-28T08:52:24;20.20;99.90
34833;DHT22;55941;50.800;4.342;2023-07-28T08:54:50;20.00;99.90
34833;DHT22;55941;50.800;4.342;2023-07-28T08:57:16;19.90;99.90
34833;DHT22;55941;50.800;4.342;2023-07-28T08:59:42;19.80;99.90
34833;DHT22;55941;50.800;4.342;2023-07-28T09:02:14;19.70;99.90
34833;DHT22;55941;50.800;4.342;2023-07-28T09:04:43;19.70;99.90
34833;DHT22;55941;50.800;4.342;2023-07-28T09:07:09;19.80;99.90
34833;DHT22;55941;50.800;4.342;2023-07-28T09:09:35;19.90;99.90
34833;DHT22;55941;50.800;4.342;2023-07-28T09:12:03;19.90;99.90
34833;DHT22;55941;50.800;4.342;2023-07-28T09:14:29;19.90;99.90
34833;DHT22;55941;50.800;4.342;2023-07-28T09:16:55;19.80;99.90
34833;DHT22;55941;50.800;4.342;2023-07-28T09:19:22;19.80;99.90
34833;DHT22;55941;50.800;4.342;2023-07-28T09:21:58;19.70;99.90
34833;DHT22;55941;50.800;4.342;2023-07-28T09:24:31;19.50;99.90
34833;DHT22;55941;50.800;4.342;2023-07-28T09:27:00;19.50;99.90
34833;DHT22;55941;50.800;4.342;2023-07-28T09:29:27;19.50;99.90
34833;DHT22;55941;50.800;4.342;2023-07-28T09:32:04;19.60;99.90
34833;DHT22;55941;50.800;4.342;2023-07-28T09:34:31;19.70;99.90
34833;DHT22;55941;50.800;4.342;2023-07-28T09:36:59;19.80;99.90
34833;DHT22;55941;50.800;4.342;2023-07-28T09:39:26;19.90;99.90
34833;DHT22;55941;50.800;4.342;2023-07-28T09:41:52;20.00;99.90
34833;DHT22;55941;50.800;4.342;2023-07-28T09:44:18;20.20;99.90
34833;DHT22;55941;50.800;4.342;2023-07-28T09:46:53;20.40;99.90
34833;DHT22;55941;50.800;4.342;2023-07-28T09:49:22;20.40;99.90
34833;DHT22;55941;50.800;4.342;2023-07-28T09:51:54;20.40;99.90
34833;DHT22;55941;50.800;4.342;2023-07-28T09:54:29;20.40;99.90
34833;DHT22;55941;50.800;4.342;2023-07-28T09:56:57;20.50;99.90
34833;DHT22;55941;50.800;4.342;2023-07-28T09:59:32;20.70;99.90
34833;DHT22;55941;50.800;4.342;2023-07-28T10:02:02;20.60;99.90
34833;DHT22;55941;50.800;4.342;2023-07-28T10:04:29;20.60;99.90
34833;DHT22;55941;50.800;4.342;2023-07-28T10:06:56;20.60;99.90
34833;DHT22;55941;50.800;4.342;2023-07-28T10:09:26;20.80;99.90
34833;DHT22;55941;50.800;4.342;2023-07-28T10:11:53;20.80;99.90
34833;DHT22;55941;50.800;4.342;2023-07-28T10:14:30;20.80;99.90
34833;DHT22;55941;50.800;4.342;2023-07-28T10:17:01;20.90;99.90
34833;DHT22;55941;50.800;4.342;2023-07-28T10:19:36;20.90;99.90
34833;DHT22;55941;50.800;4.342;2023-07-28T10:22:04;20.90;99.90
34833;DHT22;55941;50.800;4.342;2023-07-28T10:24:50;20.80;99.90
34833;DHT22;55941;50.800;4.342;2023-07-28T10:27:31;20.70;99.90
34833;DHT22;55941;50.800;4.342;2023-07-28T10:30:02;20.80;99.90
34833;DHT22;55941;50.800;4.342;2023-07-28T10:32:45;20.80;99.90
34833;DHT22;55941;50.800;4.342;2023-07-28T10:37:46;21.00;99.90
34833;DHT22;55941;50.800;4.342;2023-07-28T10:40:33;21.20;99.90
34833;DHT22;55941;50.800;4.342;2023-07-28T10:43:04;21.60;99.90
34833;DHT22;55941;50.800;4.342;2023-07-28T10:45:31;21.70;99.90
34833;DHT22;55941;50.800;4.342;2023-07-28T10:47:58;21.90;99.90
34833;DHT22;55941;50.800;4.342;2023-07-28T10:50:29;22.10;99.90
34833;DHT22;55941;50.800;4.342;2023-07-28T10:52:57;21.90;99.90
34833;DHT22;55941;50.800;4.342;2023-07-28T10:55:25;21.80;99.90
34833;DHT22;55941;50.800;4.342;2023-07-28T10:57:53;21.70;99.90
34833;DHT22;55941;50.800;4.342;2023-07-28T11:00:20;21.50;99.90
34833;DHT22;55941;50.800;4.342;2023-07-28T11:02:52;21.40;99.90
34833;DHT22;55941;50.800;4.342;2023-07-28T11:05:21;21.30;99.90
34833;DHT22;55941;50.800;4.342;2023-07-28T11:07:48;21.40;99.90
34833;DHT22;55941;50.800;4.342;2023-07-28T11:10:14;21.40;99.90
34833;DHT22;55941;50.800;4.342;2023-07-28T11:12:45;21.50;99.90
34833;DHT22;55941;50.800;4.342;2023-07-28T11:15:13;21.50;99.90
34833;DHT22;55941;50.800;4.342;2023-07-28T11:17:40;21.70;99.90
34833;DHT22;55941;50.800;4.342;2023-07-28T11:20:15;21.90;99.90
34833;DHT22;55941;50.800;4.342;2023-07-28T11:22:42;22.10;99.90
34833;DHT22;55941;50.800;4.342;2023-07-28T11:25:09;22.40;99.90
34833;DHT22;55941;50.800;4.342;2023-07-28T11:27:38;22.50;99.90
34833;DHT22;55941;50.800;4.342;2023-07-28T11:30:07;22.40;99.90
34833;DHT22;55941;50.800;4.342;2023-07-28T11:32:36;22.40;99.90
34833;DHT22;55941;50.800;4.342;2023-07-28T11:35:07;22.40;99.90
34833;DHT22;55941;50.800;4.342;2023-07-28T11:37:34;22.60;99.90
34833;DHT22;55941;50.800;4.342;2023-07-28T11:40:01;23.00;99.90
34833;DHT22;55941;50.800;4.342;2023-07-28T11:42:31;23.30;99.90
34833;DHT22;55941;50.800;4.342;2023-07-28T11:44:57;23.20;99.90
34833;DHT22;55941;50.800;4.342;2023-07-28T11:47:24;23.00;99.90
34833;DHT22;55941;50.800;4.342;2023-07-28T11:49:50;22.90;99.90
34833;DHT22;55941;50.800;4.342;2023-07-28T11:52:16;23.20;99.90
34833;DHT22;55941;50.800;4.342;2023-07-28T11:54:44;23.50;99.90
34833;DHT22;55941;50.800;4.342;2023-07-28T11:57:10;23.90;99.90
34833;DHT22;55941;50.800;4.342;2023-07-28T11:59:40;24.20;99.90
34833;DHT22;55941;50.800;4.342;2023-07-28T12:02:08;24.20;99.90
34833;DHT22;55941;50.800;4.342;2023-07-28T12:04:42;23.70;99.90
34833;DHT22;55941;50.800;4.342;2023-07-28T12:07:16;23.40;99.90
34833;DHT22;55941;50.800;4.342;2023-07-28T12:12:19;23.30;99.90
34833;DHT22;55941;50.800;4.342;2023-07-28T12:14:45;23.30;99.90
34833;DHT22;55941;50.800;4.342;2023-07-28T12:17:14;23.70;99.90
34833;DHT22;55941;50.800;4.342;2023-07-28T12:19:42;24.20;99.90
34833;DHT22;55941;50.800;4.342;2023-07-28T12:22:08;24.70;99.90
34833;DHT22;55941;50.800;4.342;2023-07-28T12:24:34;25.70;99.90
34833;DHT22;55941;50.800;4.342;2023-07-28T12:26:59;26.50;99.90
34833;DHT22;55941;50.800;4.342;2023-07-28T12:29:26;27.50;99.90
34833;DHT22;55941;50.800;4.342;2023-07-28T12:31:53;27.50;99.90
34833;DHT22;55941;50.800;4.342;2023-07-28T12:34:19;27.40;99.90
34833;DHT22;55941;50.800;4.342;2023-07-28T12:36:46;27.50;99.90
34833;DHT22;55941;50.800;4.342;2023-07-28T12:39:12;27.40;99.90
34833;DHT22;55941;50.800;4.342;2023-07-28T12:41:38;27.10;99.90
34833;DHT22;55941;50.800;4.342;2023-07-28T12:44:04;27.10;99.90
34833;DHT22;55941;50.800;4.342;2023-07-28T12:46:29;27.10;99.90
34833;DHT22;55941;50.800;4.342;2023-07-28T12:48:55;27.30;99.90
34833;DHT22;55941;50.800;4.342;2023-07-28T12:51:21;27.00;99.90
34833;DHT22;55941;50.800;4.342;2023-07-28T12:53:46;27.00;99.90
34833;DHT22;55941;50.800;4.342;2023-07-28T12:56:13;26.20;99.90
34833;DHT22;55941;50.800;4.342;2023-07-28T12:58:39;25.70;99.90
34833;DHT22;55941;50.800;4.342;2023-07-28T13:01:04;25.40;99.90
34833;DHT22;55941;50.800;4.342;2023-07-28T13:03:30;25.80;99.90
34833;DHT22;55941;50.800;4.342;2023-07-28T13:05:56;26.40;99.90
34833;DHT22;55941;50.800;4.342;2023-07-28T13:08:22;26.40;99.90
34833;DHT22;55941;50.800;4.342;2023-07-28T13:10:47;26.30;99.90
34833;DHT22;55941;50.800;4.342;2023-07-28T13:13:13;25.80;99.90
34833;DHT22;55941;50.800;4.342;2023-07-28T13:15:39;25.60;99.90
34833;DHT22;55941;50.800;4.342;2023-07-28T13:18:05;25.30;99.90
34833;DHT22;55941;50.800;4.342;2023-07-28T13:20:30;25.30;99.90
34833;DHT22;55941;50.800;4.342;2023-07-28T13:22:56;25.30;99.90
34833;DHT22;55941;50.800;4.342;2023-07-28T13:25:22;25.20;99.90
34833;DHT22;55941;50.800;4.342;2023-07-28T13:27:48;25.00;99.90
34833;DHT22;55941;50.800;4.342;2023-07-28T13:30:15;25.10;99.90
34833;DHT22;55941;50.800;4.342;2023-07-28T13:32:40;25.00;99.90
34833;DHT22;55941;50.800;4.342;2023-07-28T13:35:06;24.80;99.90
34833;DHT22;55941;50.800;4.342;2023-07-28T13:37:33;25.30;99.90
34833;DHT22;55941;50.800;4.342;2023-07-28T13:39:59;26.00;99.90
34833;DHT22;55941;50.800;4.342;2023-07-28T13:42:26;26.80;99.90
34833;DHT22;55941;50.800;4.342;2023-07-28T13:44:52;27.40;99.90
34833;DHT22;55941;50.800;4.342;2023-07-28T13:47:18;28.00;99.90
34833;DHT22;55941;50.800;4.342;2023-07-28T13:49:44;28.90;99.90
34833;DHT22;55941;50.800;4.342;2023-07-28T13:52:09;29.50;99.90
34833;DHT22;55941;50.800;4.342;2023-07-28T13:54:35;29.70;99.90
34833;DHT22;55941;50.800;4.342;2023-07-28T13:57:01;29.80;99.90
34833;DHT22;55941;50.800;4.342;2023-07-28T13:59:27;29.50;99.70
34833;DHT22;55941;50.800;4.342;2023-07-28T14:01:52;29.30;99.80
34833;DHT22;55941;50.800;4.342;2023-07-28T14:04:18;28.80;99.90
34833;DHT22;55941;50.800;4.342;2023-07-28T14:06:44;28.30;99.90
34833;DHT22;55941;50.800;4.342;2023-07-28T14:09:10;27.50;99.90
34833;DHT22;55941;50.800;4.342;2023-07-28T14:11:35;27.20;99.90
34833;DHT22;55941;50.800;4.342;2023-07-28T14:14:01;26.80;99.90
34833;DHT22;55941;50.800;4.342;2023-07-28T14:16:28;26.60;99.90
34833;DHT22;55941;50.800;4.342;2023-07-28T14:18:53;26.40;99.90
34833;DHT22;55941;50.800;4.342;2023-07-28T14:21:19;26.00;99.90
34833;DHT22;55941;50.800;4.342;2023-07-28T14:23:45;25.80;99.90
34833;DHT22;55941;50.800;4.342;2023-07-28T14:26:10;25.70;99.90
34833;DHT22;55941;50.800;4.342;2023-07-28T14:28:39;25.60;99.90
34833;DHT22;55941;50.800;4.342;2023-07-28T14:31:08;26.20;99.90
34833;DHT22;55941;50.800;4.342;2023-07-28T14:33:33;26.80;99.90
34833;DHT22;55941;50.800;4.342;2023-07-28T14:36:02;27.30;99.90
34833;DHT22;55941;50.800;4.342;2023-07-28T14:38:29;27.90;99.90
34833;DHT22;55941;50.800;4.342;2023-07-28T14:40:55;28.60;99.90
34833;DHT22;55941;50.800;4.342;2023-07-28T14:43:21;29.50;99.90
34833;DHT22;55941;50.800;4.342;2023-07-28T14:45:49;30.30;99.70
34833;DHT22;55941;50.800;4.342;2023-07-28T14:48:19;30.50;98.50
34833;DHT22;55941;50.800;4.342;2023-07-28T14:50:46;30.20;98.70
34833;DHT22;55941;50.800;4.342;2023-07-28T14:53:41;30.70;98.50
34833;DHT22;55941;50.800;4.342;2023-07-28T14:56:10;31.40;97.50
34833;DHT22;55941;50.800;4.342;2023-07-28T14:58:39;31.90;97.30
34833;DHT22;55941;50.800;4.342;2023-07-28T15:01:12;31.40;95.90
34833;DHT22;55941;50.800;4.342;2023-07-28T15:03:38;31.00;96.80
34833;DHT22;55941;50.800;4.342;2023-07-28T15:06:08;31.10;96.30
34833;DHT22;55941;50.800;4.342;2023-07-28T15:08:37;30.90;96.10
34833;DHT22;55941;50.800;4.342;2023-07-28T15:11:06;31.00;96.70
34833;DHT22;55941;50.800;4.342;2023-07-28T15:13:34;31.20;96.00
34833;DHT22;55941;50.800;4.342;2023-07-28T15:16:03;32.10;95.20
34833;DHT22;55941;50.800;4.342;2023-07-28T15:18:29;32.80;94.10
34833;DHT22;55941;50.800;4.342;2023-07-28T15:20:55;32.50;93.30
34833;DHT22;55941;50.800;4.342;2023-07-28T15:23:22;31.60;94.20
34833;DHT22;55941;50.800;4.342;2023-07-28T15:25:48;31.80;93.80
34833;DHT22;55941;50.800;4.342;2023-07-28T15:28:15;32.10;93.70
34833;DHT22;55941;50.800;4.342;2023-07-28T15:30:41;32.40;92.50
34833;DHT22;55941;50.800;4.342;2023-07-28T15:33:11;32.10;92.80
34833;DHT22;55941;50.800;4.342;2023-07-28T15:35:41;31.00;93.70
34833;DHT22;55941;50.800;4.342;2023-07-28T15:38:09;30.30;94.80
34833;DHT22;55941;50.800;4.342;2023-07-28T15:40:35;30.00;95.20